Архив погоды в Магнитогорске

Метеограмма Магнитогорск
Среда, 18 Июля
Время местн. Темп Ветер Видим Явления Облачность нижн/средн/верх Атм. давл. Влжн Точка росы ВНГО R Сост. почвы Tg s
Напр Скр Прв ур.ст ур.м изм
23:00 +16.9° В 2 - 10 км ливневый дождь облачно 726 759 +0.1 91% +15.4° 1 км - - - -
20:00 +18.1° Ю 2 - 10 км слабый ливневый дождь облачно 726 759 -0.1 87% +15.9° - 9 - - -
17:00 +19° Ю-З 1 - 10 км слабый ливневый дождь облачно 726 759 +0.3 82% +15.9° 1 км - - - -
14:00 +21.5° Ю-В 4 - 20 км - облачно 726 759 +0.2 60% +13.4° 1 км - - - -
11:00 +18.7° С-В 5 - 20 км небо без изменений {ливневые осадки} облачно 726 759 -0.1 82% +15.5° 1 км - - - -
08:00 +18.3° С,С-В 2 - 20 км - преимущественно облачно 726 759 -0.2 75% +13.8° 1 км 0 Влажная (без луж) - -
05:00 +18.2° В 3 - 20 км небо без изменений {ливневые осадки} преимущественно облачно 726 760 0 67% +11.9° 1 км - - - -
02:00 +19.4° С-В 2 - 10 км ливневый дождь облачно 726 759 +0.4 73% +14.5° 1 км - - - -
Вторник, 17 Июля
Время местн. Темп Ветер Видим Явления Облачность нижн/средн/верх Атм. давл. Влжн Точка росы ВНГО R Сост. почвы Tg s
Напр Скр Прв ур.ст ур.м изм
23:00 +19.9° С-В 5 - 10 км - облачно с прояснениями 726 759 -0.2 70% +14.3° - - - - -
20:00 +23.5° В,С-В 4 - 20 км - облачно с прояснениями 726 759 -0.6 57% +14.5° - 0 - - -
17:00 +26° В 4 - 20 км - переменная облачность 727 759 -0.8 42% +12.1° 1 км - - - -
14:00 +24.8° В 4 - 20 км - переменная облачность 728 760 -0.2 41% +10.7° 1 км - - - -
11:00 +23.6° В 4 - 20 км - переменная облачность 728 760 -0.5 47% +11.7° более 2.5 км - - - -
08:00 +17.9° С 1 - 20 км - переменная облачность 728 762 +0.1 73% +12.9° более 2.5 км 0 Сухая (без трещин) - -
05:00 +13.9° С,С-В 3 - 10 км - ясно 728 762 -0.2 81% +10.7° более 2.5 км - - - -
02:00 +14.8° С,С-В 3 - 10 км - ясно 728 762 +0.1 78% +11° более 2.5 км - - - -
Понедельник, 16 Июля
Время местн. Темп Ветер Видим Явления Облачность нижн/средн/верх Атм. давл. Влжн Точка росы ВНГО R Сост. почвы Tg s
Напр Скр Прв ур.ст ур.м изм
23:00 +16.5° С,С-В 3 - 10 км - ясно 728 762 +0.2 79% +12.9° более 2.5 км - - - -
20:00 +22.5° В 3 - 20 км - переменная облачность 728 761 +0.2 55% +13.1° 1 км 0 - - -
17:00 +24.5° В 5 - 20 км - переменная облачность 728 760 +0.1 43% +11.1° 1 км - - - -
14:00 +24.3° В 6 - 20 км - переменная облачность 728 760 -0.2 44% +11.2° 1 км - - - -
11:00 +23° В 4 - 20 км - переменная облачность 728 761 +0.2 57% +13.9° 1 км - - - -
08:00 +19.2° С,С-В 3 - 20 км - ясно 728 761 +0.5 73% +14.3° более 2.5 км 0 Влажная (без луж) - -
05:00 +14.6° С,С-В 3 - 20 км - переменная облачность 727 761 +0.4 84% +11.9° 1 км - - - -
02:00 +15.4° С,С-В 3 - 10 км - ясно 727 760 +0.2 80% +12° более 2.5 км - - - -
Воскресенье, 15 Июля
Время местн. Темп Ветер Видим Явления Облачность нижн/средн/верх Атм. давл. Влжн Точка росы ВНГО R Сост. почвы Tg s
Напр Скр Прв ур.ст ур.м изм
23:00 +17.7° С,С-В 3 - 10 км - ясно 727 760 +1 77% +13.6° более 2.5 км - - - -
20:00 +23.4° В 4 - 20 км - переменная облачность 726 758 +0.5 59% +14.9° 1 км 0 - - -